Latest Weather Observations for Legendre Island

IDW60801

Issued at 11:35 am WST Friday 19 September 2014 (issued every 30 minutes, with the page automatically refreshed every 10 minutes)

About weather observations | Map of weather stations | Latest weather observations for WA | Other Formats
Station Details ID: 004095 Name: LEGENDRE ISLAND Lat: -20.36 Lon: 116.84 Height: 29.0 m
Data from the previous 72 hours. | See also: Recent months for locations in Western Australia
Date/Time
WST
Temp
°C
App
Temp
°C
Dew
Point
Rel
Hum
%
Delta-T
°C
Wind Press
QNH
hPa
Press
MSL
hPa
Rain
since 9 am
mm
Dir
 
Spd
km/h
Gust
km/h
Spd
kts
Gust
kts
19/11:30am 27.6 27.6 14.3 44 8.0 ENE 7 9 4 5 1016.0 1015.8 -
19/11:00am 28.5 27.9 14.7 43 8.4 E 11 13 6 7 1016.3 1016.1 -
19/10:30am 28.9 27.1 13.2 38 9.3 E 15 17 8 9 1016.5 1016.3 -
19/10:00am 31.0 26.4 3.9 18 13.9 SSE 17 20 9 11 1016.7 1016.5 -
19/09:30am 30.1 26.9 8.5 26 11.9 SE 15 20 8 11 1016.7 1016.5 -
19/09:00am 30.1 26.7 6.1 22 12.7 SE 13 19 7 10 1016.8 1016.6 -
19/08:30am 28.0 25.1 9.8 32 10.2 SSE 15 17 8 9 1016.6 1016.4 -
19/08:00am 25.7 27.3 17.9 62 4.9 E 6 9 3 5 1016.7 1016.5 -
19/07:30am 24.4 25.4 16.9 63 4.6 S 7 9 4 5 1016.5 1016.3 -
19/07:00am 23.2 23.8 18.7 76 2.8 S 13 15 7 8 1016.1 1015.9 -
19/06:30am 22.0 21.6 18.0 78 2.5 SSW 17 19 9 10 1015.6 1015.4 -
19/06:00am 21.6 20.6 17.6 78 2.5 SSW 19 19 10 10 1015.3 1015.2 -
19/05:30am 21.7 20.5 17.5 77 2.6 SSW 20 24 11 13 1014.9 1014.8 -
19/05:00am 22.0 21.0 18.0 78 2.5 SSW 20 22 11 12 1014.6 1014.5 -
19/04:30am 22.2 20.2 17.3 74 3.0 SW 24 28 13 15 1014.5 1014.4 -
19/04:00am 22.2 21.8 19.0 82 2.0 SW 19 24 10 13 1014.5 1014.4 -
19/03:30am 22.5 21.3 20.0 86 1.6 SW 26 32 14 17 1014.3 1014.2 -
19/03:00am 22.7 20.8 20.2 86 1.6 SW 30 37 16 20 1014.4 1014.3 -
19/02:30am 22.7 20.7 20.8 89 1.2 SW 32 37 17 20 1014.5 1014.4 -
19/02:00am 22.8 21.5 21.4 92 0.9 SW 30 35 16 19 1014.7 1014.6 -
19/01:30am 22.7 20.7 20.8 89 1.2 SW 32 35 17 19 1014.7 1014.6 -
19/01:00am 22.8 21.4 21.1 90 1.1 SW 30 39 16 21 1015.0 1014.9 -
19/12:30am 22.9 22.7 20.6 87 1.5 WSW 22 28 12 15 1015.3 1015.2 -
19/12:00am 23.0 22.0 19.6 81 2.2 WSW 24 30 13 16 1015.6 1015.4 -
 
Date/Time
WST
Temp
°C
App
Temp
°C
Dew
Point
Rel
Hum
%
Delta-T
°C
Wind Press
QNH
hPa
Press
MSL
hPa
Rain
since 9 am
mm
Dir
 
Spd
km/h
Gust
km/h
Spd
kts
Gust
kts
18/11:30pm 23.2 22.2 19.6 80 2.3 WSW 24 30 13 16 1015.8 1015.6 -
18/11:00pm 23.3 21.7 19.2 78 2.6 WSW 26 32 14 17 1015.9 1015.7 -
18/10:30pm 23.4 21.5 19.3 78 2.6 WSW 28 33 15 18 1016.1 1015.9 -
18/10:00pm 23.2 21.8 19.6 80 2.3 WSW 26 30 14 16 1016.2 1016.0 -
18/09:30pm 23.4 21.8 19.3 78 2.6 WSW 26 30 14 16 1016.5 1016.3 -
18/09:00pm 23.3 22.0 19.0 77 2.7 WSW 24 28 13 15 1016.4 1016.2 -
18/08:30pm 23.5 22.1 18.8 75 3.0 WSW 24 28 13 15 1016.2 1016.0 -
18/08:00pm 23.3 22.8 19.0 77 2.7 WSW 20 24 11 13 1016.0 1015.8 -
18/07:30pm 22.9 22.9 18.9 78 2.5 WSW 17 19 9 10 1015.8 1015.6 -
18/07:00pm 23.1 22.9 18.6 76 2.8 WSW 17 20 9 11 1015.6 1015.4 -
18/06:30pm 23.3 23.8 19.2 78 2.6 WSW 15 17 8 9 1015.2 1015.1 -
18/06:00pm 23.9 25.2 19.4 76 2.9 W 11 15 6 8 1014.9 1014.8 -
18/05:30pm 24.8 25.6 19.8 74 3.2 W 15 19 8 10 1014.4 1014.3 -
18/05:00pm 25.3 25.3 19.7 71 3.6 W 19 22 10 12 1014.2 1014.1 -
18/04:30pm 26.0 25.5 19.2 66 4.4 W 20 26 11 14 1014.0 1013.9 -
18/04:00pm 26.8 26.6 19.7 65 4.6 W 20 26 11 14 1014.0 1013.9 -
18/03:30pm 26.9 26.2 19.5 64 4.8 W 22 26 12 14 1014.0 1013.9 -
18/03:00pm 27.2 26.5 19.5 62 5.0 W 22 28 12 15 1014.1 1014.0 -
18/02:30pm 27.0 26.3 19.4 63 4.9 W 22 26 12 14 1014.2 1014.1 -
18/02:00pm 27.5 27.1 19.3 61 5.3 W 20 24 11 13 1014.3 1014.2 -
18/01:30pm 27.4 26.7 20.2 65 4.7 WSW 24 28 13 15 1014.4 1014.3 -
18/01:00pm 27.2 27.1 20.0 64 4.7 WSW 20 24 11 13 1015.0 1014.9 -
18/12:30pm 27.1 27.5 20.7 68 4.2 WSW 19 22 10 12 1015.6 1015.4 -
18/12:00pm 27.0 27.2 20.6 68 4.2 WSW 20 24 11 13 1015.9 1015.7 -
18/11:30am 27.3 28.4 21.3 69 4.0 W 17 20 9 11 1016.5 1016.3 -
18/11:00am 26.1 26.6 20.0 69 4.0 W 17 20 9 11 1016.9 1016.7 -
18/10:30am 26.0 26.3 19.6 68 4.1 W 17 20 9 11 1017.0 1016.8 -
18/10:00am 25.7 26.7 20.3 72 3.5 W 15 19 8 10 1017.3 1017.1 -
18/09:30am 25.6 27.0 20.4 73 3.4 W 13 17 7 9 1017.4 1017.2 -
18/09:00am 24.8 27.0 20.3 76 2.9 W 9 17 5 9 1017.5 1017.3 -
18/08:30am 24.5 26.7 20.4 78 2.7 W 9 13 5 7 1017.3 1017.1 -
18/08:00am 23.8 25.7 21.3 86 1.6 WSW 13 17 7 9 1016.6 1016.4 -
18/07:30am 23.1 24.4 21.7 92 0.9 WSW 17 22 9 12 1016.5 1016.3 -
18/07:00am 22.3 25.6 21.5 95 0.5 W 6 11 3 6 1016.2 1016.0 -
18/06:30am 21.5 21.8 20.7 95 0.5 SSW 20 30 11 16 1015.3 1015.2 -
18/06:00am 21.7 22.3 21.0 96 0.5 SW 19 26 10 14 1015.3 1015.2 -
18/05:30am 21.1 22.5 20.3 95 0.5 SSW 13 22 7 12 1014.9 1014.8 -
18/05:00am 21.8 20.5 21.3 97 0.3 SW 30 32 16 17 1014.4 1014.3 -
18/04:30am 22.0 23.2 21.5 97 0.3 SW 17 22 9 12 1014.6 1014.5 -
18/04:00am 22.1 21.4 21.8 98 0.2 SSW 28 33 15 18 1014.1 1014.0 -
18/03:30am 21.9 21.0 21.4 97 0.3 SW 28 30 15 16 1014.3 1014.2 -
18/03:00am 22.1 20.5 21.6 97 0.3 SW 32 37 17 20 1014.1 1014.0 -
18/02:30am 22.1 21.1 21.9 99 0.1 SW 30 37 16 20 1014.2 1014.1 -
18/02:00am 22.1 21.6 22.1 100 0.0 SW 28 33 15 18 1014.3 1014.2 -
18/01:30am 22.3 22.2 22.3 100 0.0 SW 26 33 14 18 1014.3 1014.2 -
18/01:00am 22.2 21.7 22.2 100 0.0 SW 28 35 15 19 1014.5 1014.4 -
18/12:30am 22.3 21.5 22.3 100 0.0 SW 30 35 16 19 1014.8 1014.7 -
18/12:00am 22.4 21.0 22.2 99 0.1 SW 33 39 18 21 1015.1 1015.0 -
 
Date/Time
WST
Temp
°C
App
Temp
°C
Dew
Point
Rel
Hum
%
Delta-T
°C
Wind Press
QNH
hPa
Press
MSL
hPa
Rain
since 9 am
mm
Dir
 
Spd
km/h
Gust
km/h
Spd
kts
Gust
kts
17/11:30pm 22.5 21.3 22.2 98 0.2 SW 32 37 17 20 1015.1 1015.0 -
17/11:00pm 22.6 21.3 22.1 97 0.3 SW 32 39 17 21 1015.3 1015.2 -
17/10:30pm 22.6 22.3 21.9 96 0.5 SW 26 33 14 18 1015.6 1015.4 -
17/10:00pm 22.7 21.6 21.7 94 0.7 WSW 30 35 16 19 1015.8 1015.6 -
17/09:30pm 22.7 21.2 21.7 94 0.7 WSW 32 37 17 20 1015.6 1015.4 -
17/09:00pm 22.7 21.8 21.5 93 0.8 WSW 28 33 15 18 1015.3 1015.2 -
17/08:30pm 22.7 22.5 21.3 92 0.9 WSW 24 30 13 16 1015.2 1015.1 -
17/08:00pm 22.8 22.4 20.9 89 1.2 WSW 24 32 13 17 1014.9 1014.8 -
17/07:30pm 23.1 22.5 20.4 85 1.8 WSW 24 28 13 15 1014.3 1014.2 -
17/07:00pm 23.4 22.0 18.7 75 3.0 WSW 24 30 13 16 1013.7 1013.6 -
17/06:30pm 23.4 22.0 18.7 75 3.0 WSW 24 28 13 15 1013.5 1013.4 -
17/06:00pm 23.8 22.0 18.7 73 3.2 WSW 26 32 14 17 1013.1 1013.0 -
17/05:30pm 24.7 23.2 18.6 69 3.9 WSW 24 30 13 16 1013.0 1012.9 -
17/05:00pm 25.3 23.9 18.7 67 4.2 WSW 24 30 13 16 1012.7 1012.6 -
17/04:30pm 26.1 24.5 19.2 65 4.4 WSW 26 30 14 16 1012.6 1012.5 -
17/04:00pm 26.1 24.5 19.2 65 4.4 W 26 30 14 16 1012.7 1012.6 -
17/03:30pm 26.2 24.9 19.1 65 4.6 W 24 28 13 15 1012.5 1012.4 -
17/03:00pm 26.5 25.6 19.1 64 4.8 W 22 28 12 15 1012.7 1012.6 -
17/02:30pm 27.2 25.8 18.8 60 5.4 W 24 30 13 16 1012.7 1012.6 -
17/02:00pm 27.5 26.5 18.8 59 5.6 W 22 28 12 15 1012.8 1012.7 -
17/01:30pm 27.1 25.9 18.4 59 5.5 WSW 22 28 12 15 1013.0 1012.9 -
17/01:00pm 27.3 26.6 18.6 59 5.6 WSW 20 26 11 14 1013.5 1013.4 -
17/12:30pm 26.4 25.0 18.8 63 4.9 WSW 24 30 13 16 1013.5 1013.4 -
17/12:00pm 26.8 25.7 19.4 64 4.8 WSW 24 30 13 16 1013.8 1013.7 -
17/11:30am 27.1 24.6 18.1 58 5.7 WSW 28 33 15 18 1014.0 1013.9 -
17/11:00am 26.7 23.8 18.0 59 5.5 SW 30 35 16 19 1014.3 1014.2 -
17/10:30am 26.5 23.9 18.6 62 5.0 SW 30 35 16 19 1014.5 1014.4 -
17/10:00am 25.4 22.3 18.3 65 4.5 SW 32 35 17 19 1014.6 1014.5 -
17/09:30am 25.4 22.3 18.3 65 4.5 SW 32 39 17 21 1014.5 1014.4 -
17/09:00am 24.6 21.5 18.5 69 3.9 SW 32 37 17 20 1014.3 1014.2 -
17/08:30am 24.3 21.8 18.9 72 3.4 SW 30 35 16 19 1014.1 1014.0 -
17/08:00am 23.3 21.1 18.8 76 2.9 SW 28 33 15 18 1013.9 1013.8 -
17/07:30am 22.7 19.9 19.1 80 2.3 SW 32 37 17 20 1013.7 1013.6 -
17/07:00am 22.1 19.9 19.5 85 1.7 SW 30 35 16 19 1013.4 1013.3 -
17/06:30am 21.6 18.3 19.3 87 1.5 SW 35 39 19 21 1012.8 1012.7 -
17/06:00am 21.4 18.6 19.5 89 1.2 WSW 33 37 18 20 1012.5 1012.4 -
17/05:30am 21.5 19.0 19.8 90 1.1 SW 32 39 17 21 1012.3 1012.2 -
17/05:00am 21.6 19.7 20.9 96 0.5 SW 32 37 17 20 1012.0 1011.9 -
17/04:30am 21.8 20.2 21.6 99 0.1 SW 32 37 17 20 1011.7 1011.6 -
17/04:00am 21.8 20.3 21.8 100 0.0 SW 32 39 17 21 1011.7 1011.6 -
17/03:30am 21.8 20.7 21.8 100 0.0 SW 30 37 16 20 1011.9 1011.8 -
17/03:00am 21.9 20.5 21.9 100 0.0 SW 32 37 17 20 1011.7 1011.6 -
17/02:30am 22.0 21.8 22.0 100 0.0 SW 26 33 14 18 1011.8 1011.7 -
17/02:00am 22.2 21.2 21.9 98 0.2 SW 30 35 16 19 1011.9 1011.8 -
17/01:30am 22.3 20.8 21.8 97 0.3 SW 32 37 17 20 1011.9 1011.8 -
17/01:00am 22.3 22.2 21.5 95 0.5 SW 24 32 13 17 1012.3 1012.2 -
17/12:30am 22.4 21.8 21.2 93 0.8 SW 26 33 14 18 1012.6 1012.5 -
17/12:00am 22.6 21.2 21.1 91 1.0 SW 30 35 16 19 1012.6 1012.5 -
 
Date/Time
WST
Temp
°C
App
Temp
°C
Dew
Point
Rel
Hum
%
Delta-T
°C
Wind Press
QNH
hPa
Press
MSL
hPa
Rain
since 9 am
mm
Dir
 
Spd
km/h
Gust
km/h
Spd
kts
Gust
kts
16/11:30pm 22.7 21.1 20.8 89 1.2 SW 30 33 16 18 1012.6 1012.5 -
16/11:00pm 22.9 21.0 20.1 84 1.8 SW 30 35 16 19 1012.6 1012.5 -
16/10:30pm 23.2 21.3 19.4 79 2.4 SW 28 33 15 18 1012.7 1012.6 -
16/10:00pm 23.3 20.6 19.7 80 2.3 WSW 33 39 18 21 1012.4 1012.3 -
16/09:30pm 23.3 21.1 18.8 76 2.9 SW 28 32 15 17 1012.6 1012.5 -
16/09:00pm 23.3 21.1 18.8 76 2.9 SW 28 33 15 18 1012.5 1012.4 -
16/08:30pm 23.3 21.0 18.4 74 3.1 WSW 28 33 15 18 1012.4 1012.3 -
16/08:00pm 23.4 21.7 18.1 72 3.3 WSW 24 30 13 16 1012.2 1012.1 -
16/07:30pm 23.3 21.9 18.0 72 3.3 WSW 22 26 12 14 1011.9 1011.8 -
16/07:00pm 23.4 21.6 17.8 71 3.5 WSW 24 30 13 16 1011.4 1011.3 -
16/06:30pm 23.4 21.7 18.1 72 3.3 WSW 24 28 13 15 1011.2 1011.1 -
16/06:00pm 23.8 22.8 18.0 70 3.6 W 20 26 11 14 1011.1 1011.0 -
16/05:30pm 24.8 23.6 18.3 67 4.1 W 22 30 12 16 1010.8 1010.7 -
16/05:00pm 25.6 23.9 18.0 63 4.8 W 24 30 13 16 1010.6 1010.5 -
16/04:30pm 26.1 24.2 18.5 63 4.8 W 26 32 14 17 1010.6 1010.5 -
16/04:00pm 26.6 24.2 18.2 60 5.3 W 28 35 15 19 1010.4 1010.3 -
16/03:30pm 26.7 24.2 18.0 59 5.5 W 28 33 15 18 1010.3 1010.2 -
16/03:00pm 27.6 25.4 18.6 58 5.8 W 28 33 15 18 1010.2 1010.1 -
16/02:30pm 28.1 25.8 18.5 56 6.2 W 28 33 15 18 1010.5 1010.4 -
16/02:00pm 27.8 25.4 18.2 56 6.1 W 28 33 15 18 1010.7 1010.6 -
16/01:30pm 27.9 26.2 18.9 58 5.8 W 26 32 14 17 1011.0 1010.9 -
16/01:00pm 27.7 26.3 18.7 58 5.8 W 24 28 13 15 1011.3 1011.2 -
16/12:30pm 27.5 26.0 18.5 58 5.8 W 24 30 13 16 1011.5 1011.4 -
16/12:00pm 27.7 26.8 19.0 59 5.6 WSW 22 26 12 14 1012.0 1011.9 -

Other Formats:

Comma delimited format used in spreadsheet applications
http://www.bom.gov.au/fwo/IDW60801/IDW60801.94307.axf

JavaScript Object Notation format (JSON) in row-major order
http://www.bom.gov.au/fwo/IDW60801/IDW60801.94307.json